Latest Weather Observations for Melbourne (Olympic Park)

IDV60901

Issued at 6:11 pm EST Thursday 25 August 2016 (issued every 10 minutes, with the page automatically refreshed every 10 minutes)

About weather observations | Map of Melbourne area stations | Latest observations for Melbourne area | Other Formats
Station Details ID: 086338 Name: MELBOURNE (OLYMPIC PARK) Lat: -37.83 Lon: 144.98 Height: 7.53 m
Data from the previous 72 hours. | See also: Recent months at Melbourne (Olympic Park)
Date/Time
EST
Temp
°C
App
Temp
°C
Dew
Point
°C
Rel
Hum
%
Delta-T
°C
Wind Press
QNH
hPa
Press
MSL
hPa
Rain since
9am
mm
Dir  Spd
km/h
Gust
km/h
Spd
kts
Gust
kts
25/06:00pm 10.9 8.7 6.3 73 2.1 SSW 7 11 4 6 1017.0 1017.0 0.6
25/05:30pm 11.5 9.0 6.4 71 2.4 SSW 9 15 5 8 1016.7 1016.7 0.6
25/05:00pm 11.5 7.3 5.6 67 2.7 SSW 17 26 9 14 1016.4 1016.4 0.6
25/04:30pm 12.1 8.7 5.7 65 3.0 S 13 22 7 12 1016.1 1016.1 0.6
25/04:00pm 12.2 7.9 5.1 62 3.3 SSW 17 28 9 15 1016.0 1016.0 0.6
25/03:30pm 12.3 8.3 5.0 61 3.4 S 15 28 8 15 1015.9 1015.9 0.6
25/03:00pm 12.2 8.7 5.4 63 3.1 SSW 13 26 7 14 1015.7 1015.7 0.6
25/02:30pm 12.1 8.4 6.2 67 2.8 S 15 24 8 13 1015.5 1015.5 0.6
25/02:00pm 13.0 9.0 6.6 65 3.1 SSW 17 32 9 17 1015.3 1015.3 0.6
25/01:30pm 12.4 8.1 5.3 62 3.3 SSW 17 33 9 18 1015.2 1015.2 0.6
25/01:00pm 12.0 7.3 5.2 63 3.1 SSW 19 30 10 16 1015.2 1015.2 0.6
25/12:30pm 11.8 8.3 5.4 65 3.0 SW 13 24 7 13 1015.2 1015.2 0.6
25/12:00pm 9.9 7.3 6.1 77 1.8 SSW 9 13 5 7 1015.4 1015.4 0.6
25/11:30am 10.5 6.2 5.1 69 2.5 SW 17 33 9 18 1015.7 1015.7 0.0
25/11:00am 10.9 7.4 5.4 69 2.5 SW 13 22 7 12 1015.6 1015.6 0.0
25/10:30am 10.6 7.2 6.0 73 2.1 SSW 13 20 7 11 1015.4 1015.4 0.0
25/10:00am 10.5 7.6 6.3 75 2.0 WSW 11 19 6 10 1015.1 1015.1 0.0
25/09:30am 9.0 6.4 6.3 83 1.2 WSW 9 17 5 9 1015.1 1015.1 0.0
25/09:00am 8.1 4.7 5.7 85 1.1 W 13 22 7 12 1015.2 1015.2 1.2
25/08:30am 8.2 5.6 6.3 88 0.9 W 9 19 5 10 1015.0 1015.0 1.2
25/08:00am 7.6 5.0 5.9 89 0.8 W 9 17 5 9 1014.7 1014.7 1.2
25/07:30am 7.2 5.0 6.0 92 0.5 WNW 7 15 4 8 1014.2 1014.2 1.2
25/07:16am 7.3 5.3 6.1 92 0.5 W 6 13 3 7 1015.2 - 1.2
25/07:00am 7.4 5.2 6.0 91 0.6 WSW 7 11 4 6 1014.2 1014.2 1.2
25/06:59am 7.4 5.2 6.0 91 0.6 WSW 7 11 4 6 1015.1 - 1.2
25/06:30am 7.2 4.9 5.8 91 0.6 W 7 15 4 8 1013.8 1013.8 0.6
25/06:00am 7.4 4.4 6.2 92 0.5 W 11 20 6 11 1013.6 1013.6 0.4
25/05:49am 7.5 4.9 6.3 92 0.5 W 9 19 5 10 1014.5 - 0.4
25/05:36am 7.6 5.4 6.2 91 0.6 W 7 19 4 10 1014.4 - 0.4
25/05:30am 7.7 5.4 5.8 88 0.9 W 7 19 4 10 1013.5 1013.5 0.2
25/05:00am 7.4 5.2 5.2 86 1.0 WSW 6 15 3 8 1013.2 1013.2 0.0
25/04:30am 7.7 4.9 5.0 83 1.2 WSW 9 15 5 8 1012.9 1012.9 0.0
25/04:00am 7.9 5.1 5.0 82 1.3 WSW 9 17 5 9 1012.9 1012.9 0.0
25/03:30am 7.9 5.6 5.0 82 1.3 WSW 6 13 3 7 1012.9 1012.9 0.0
25/03:00am 7.9 5.0 4.8 81 1.4 W 9 17 5 9 1013.0 1013.0 0.0
25/02:30am 8.2 5.3 4.8 79 1.5 W 9 13 5 7 1013.2 1013.2 0.0
25/02:00am 8.2 5.9 5.0 80 1.4 WSW 6 9 3 5 1013.3 1013.3 0.0
25/01:30am 8.0 5.7 4.8 80 1.4 WSW 6 13 3 7 1013.5 1013.5 0.0
25/01:00am 8.1 5.8 4.9 80 1.4 W 6 11 3 6 1013.6 1013.6 0.0
25/12:30am 8.3 5.5 5.1 80 1.4 W 9 15 5 8 1013.6 1013.6 0.0
25/12:00am 8.5 6.1 5.3 80 1.4 WNW 7 13 4 7 1013.7 1013.7 0.0
 
Date/Time
EST
Temp
°C
App
Temp
°C
Dew
Point
°C
Rel
Hum
%
Delta-T
°C
Wind Press
QNH
hPa
Press
MSL
hPa
Rain since
9am
mm
Dir  Spd
km/h
Gust
km/h
Spd
kts
Gust
kts
24/11:30pm 8.8 6.6 6.1 83 1.2 W 7 11 4 6 1013.7 1013.7 0.0
24/11:00pm 9.2 7.3 6.6 84 1.2 WSW 6 13 3 7 1013.8 1013.8 0.0
24/10:30pm 8.9 8.0 6.2 83 1.2 CALM 0 0 0 0 1014.1 1014.1 0.0
24/10:00pm 9.1 7.3 5.5 78 1.6 SSE 4 7 2 4 1014.3 1014.3 0.0
24/09:30pm 9.9 6.3 4.9 71 2.2 S 13 24 7 13 1014.4 1014.4 0.0
24/09:00pm 10.2 6.8 3.9 65 2.8 SSE 11 15 6 8 1014.3 1014.3 0.0
24/08:30pm 10.5 7.9 5.9 73 2.1 SSE 9 15 5 8 1014.3 1014.3 0.0
24/08:00pm 10.5 8.1 5.3 70 2.4 S 7 13 4 7 1014.3 1014.3 0.0
24/07:30pm 10.5 7.9 5.9 73 2.1 SSE 9 19 5 10 1014.3 1014.3 0.0
24/07:00pm 10.5 7.1 5.9 73 2.1 S 13 22 7 12 1014.3 1014.3 0.0
24/06:30pm 10.3 7.1 7.0 80 1.6 SSE 13 24 7 13 1014.1 1014.1 0.0
24/06:00pm 10.4 8.0 6.9 79 1.7 S 9 20 5 11 1013.8 1013.8 0.0
24/05:30pm 10.5 7.4 7.4 81 1.5 S 13 24 7 13 1013.7 1013.7 0.0
24/05:00pm 10.4 7.4 7.6 83 1.3 SSW 13 22 7 12 1013.6 1013.6 0.0
24/04:30pm 10.3 7.0 6.5 77 1.8 SSW 13 26 7 14 1013.5 1013.5 0.0
24/04:00pm 10.9 7.2 6.1 72 2.2 S 15 26 8 14 1013.4 1013.4 0.0
24/03:30pm 11.4 7.3 6.3 71 2.4 S 17 24 9 13 1013.4 1013.4 0.0
24/03:00pm 11.4 8.0 7.5 77 1.9 SSW 15 22 8 12 1013.5 1013.5 0.0
24/02:30pm 12.0 8.7 6.3 68 2.7 SSW 13 24 7 13 1013.6 1013.6 0.0
24/02:00pm 11.8 8.5 6.3 69 2.6 SSW 13 19 7 10 1013.8 1013.8 0.0
24/01:30pm 12.2 9.5 7.5 73 2.3 SSW 11 19 6 10 1014.0 1014.0 0.0
24/01:00pm 11.7 9.3 6.8 72 2.3 SSW 9 19 5 10 1014.3 1014.3 0.0
24/12:30pm 11.3 8.4 6.6 73 2.2 SSW 11 15 6 8 1014.5 1014.5 0.0
24/12:00pm 11.1 8.7 7.0 76 1.9 SW 9 15 5 8 1015.0 1015.0 0.0
24/11:30am 10.7 8.3 6.8 77 1.8 SSW 9 13 5 7 1015.4 1015.4 0.0
24/11:00am 10.7 8.6 6.5 75 2.0 SSW 7 13 4 7 1015.7 1015.7 0.0
24/10:30am 11.2 10.4 6.5 73 2.2 CALM 0 4 0 2 1016.1 1016.1 0.0
24/10:00am 9.1 7.0 5.7 79 1.5 ENE 6 9 3 5 1016.3 1016.3 0.0
24/09:30am 8.2 5.9 5.5 83 1.2 NE 7 9 4 5 1016.5 1016.5 0.0
24/09:00am 6.6 3.9 5.6 93 0.4 NNE 9 13 5 7 1016.6 1016.6 0.0
24/08:30am 5.3 2.7 4.4 94 0.4 NE 7 9 4 5 1016.8 1016.8 0.0
24/08:00am 4.6 2.1 3.7 94 0.4 NE 6 9 3 5 1016.7 1016.7 0.0
24/07:30am 3.7 0.1 3.0 95 0.3 NNE 11 15 6 8 1016.7 1016.7 0.0
24/07:00am 3.9 0.7 3.2 95 0.3 NNE 9 13 5 7 1016.8 1016.8 0.0
24/06:30am 4.3 1.8 3.9 97 0.2 NNE 6 11 3 6 1016.7 1016.7 0.0
24/06:00am 4.3 1.7 4.2 99 0.0 NE 7 9 4 5 1016.5 1016.5 0.0
24/05:30am 4.3 3.0 4.3 100 0.0 CALM 0 0 0 0 1016.5 1016.5 0.0
24/05:00am 4.3 3.0 4.3 100 0.0 CALM 0 0 0 0 1016.4 1016.4 0.0
24/04:30am 4.6 3.4 4.6 100 0.0 CALM 0 0 0 0 1016.4 1016.4 0.0
24/04:00am 4.5 3.3 4.5 100 0.0 CALM 0 0 0 0 1016.5 1016.5 0.0
24/03:30am 5.1 4.0 5.0 99 0.0 CALM 0 0 0 0 1016.5 1016.5 0.0
24/03:00am 5.4 4.3 5.1 98 0.1 CALM 0 0 0 0 1016.7 1016.7 0.0
24/02:30am 5.7 3.6 5.7 100 0.0 NE 6 9 3 5 1016.9 1016.9 0.0
24/02:00am 5.7 4.7 5.7 100 0.0 CALM 0 0 0 0 1016.9 1016.9 0.0
24/01:30am 6.1 5.2 6.1 100 0.0 CALM 0 0 0 0 1017.1 1017.1 0.0
24/01:00am 6.3 5.5 6.3 100 0.0 CALM 0 0 0 0 1017.4 1017.4 0.0
24/12:30am 5.8 4.8 5.8 100 0.0 CALM 0 0 0 0 1017.5 1017.5 0.0
24/12:00am 5.8 4.8 5.5 98 0.1 CALM 0 0 0 0 1017.8 1017.8 0.0
 
Date/Time
EST
Temp
°C
App
Temp
°C
Dew
Point
°C
Rel
Hum
%
Delta-T
°C
Wind Press
QNH
hPa
Press
MSL
hPa
Rain since
9am
mm
Dir  Spd
km/h
Gust
km/h
Spd
kts
Gust
kts
23/11:30pm 6.3 5.4 5.9 97 0.2 CALM 0 0 0 0 1017.7 1017.7 0.0
23/11:00pm 6.8 5.9 5.9 94 0.4 CALM 0 0 0 0 1017.7 1017.7 0.0
23/10:30pm 6.9 5.9 5.5 91 0.6 CALM 0 0 0 0 1017.7 1017.7 0.0
23/10:00pm 7.8 6.5 5.9 88 0.9 SSE 2 7 1 4 1017.7 1017.7 0.0
23/09:30pm 7.6 6.7 5.9 89 0.8 CALM 0 0 0 0 1017.9 1017.9 0.0
23/09:00pm 8.4 7.1 6.2 86 1.0 SSE 2 7 1 4 1018.0 1018.0 0.0
23/08:30pm 8.9 7.9 5.6 80 1.5 CALM 0 6 0 3 1017.9 1017.9 0.0
23/08:00pm 9.1 7.4 5.7 79 1.5 S 4 9 2 5 1017.7 1017.7 0.0
23/07:30pm 9.9 7.6 5.7 75 1.9 SSE 7 11 4 6 1017.6 1017.6 0.0
23/07:00pm 10.5 8.2 5.7 72 2.2 SSE 7 13 4 7 1017.6 1017.6 0.0
23/06:30pm 10.5 8.7 5.5 71 2.3 S 4 11 2 6 1017.5 1017.5 0.0
23/06:00pm 10.9 8.4 5.0 67 2.7 S 7 13 4 7 1017.6 1017.6 0.0
23/05:30pm 11.4 8.9 4.8 64 3.0 S 7 13 4 7 1017.7 1017.7 0.0
23/05:00pm 11.9 8.7 5.3 64 3.0 SSW 11 19 6 10 1017.5 1017.5 0.0
23/04:30pm 12.4 8.4 4.9 60 3.4 SSW 15 19 8 10 1017.5 1017.5 0.0
23/04:00pm 12.5 8.9 5.0 60 3.4 SSW 13 20 7 11 1017.4 1017.4 0.0
23/03:30pm 12.6 9.3 4.8 59 3.6 SSW 11 20 6 11 1017.2 1017.2 0.0
23/03:00pm 12.7 9.3 5.8 63 3.2 SW 13 24 7 13 1016.9 1016.9 0.0
23/02:30pm 12.6 9.1 5.3 61 3.4 SSW 13 22 7 12 1016.8 1016.8 0.0
23/02:00pm 12.5 8.9 5.2 61 3.4 SSW 13 17 7 9 1016.5 1016.5 0.0
23/01:30pm 12.9 10.0 4.6 57 3.8 SSW 9 19 5 10 1016.5 1016.5 0.0
23/01:00pm 12.5 8.7 3.7 55 3.9 SSW 13 22 7 12 1016.6 1016.6 0.0
23/12:30pm 12.9 9.6 4.6 57 3.8 SSW 11 17 6 9 1016.8 1016.8 0.0
23/12:00pm 12.5 8.9 5.2 61 3.4 SSW 13 20 7 11 1017.0 1017.0 0.0
23/11:30am 12.6 9.3 2.5 50 4.4 SSW 9 17 5 9 1017.3 1017.3 0.0
23/11:00am 12.5 9.4 3.5 54 4.0 SW 9 13 5 7 1017.5 1017.5 0.0
23/10:30am 11.7 8.6 3.5 57 3.6 S 9 15 5 8 1017.8 1017.8 0.0
23/10:00am 11.2 7.9 2.5 55 3.7 S 9 17 5 9 1018.0 1018.0 0.0
23/09:30am 11.6 9.1 3.6 58 3.5 SSE 6 13 3 7 1018.0 1018.0 0.0
23/09:00am 11.1 10.7 8.3 83 1.4 CALM 0 0 0 0 1018.0 1018.0 11.0
23/08:30am 9.6 9.5 9.6 100 0.0 CALM 0 0 0 0 1017.9 1017.9 11.0
23/08:00am 8.0 7.5 8.0 100 0.0 CALM 0 0 0 0 1017.7 1017.7 11.0
23/07:30am 7.3 6.7 7.3 100 0.0 CALM 0 0 0 0 1017.4 1017.4 11.0
23/07:00am 7.5 6.9 7.5 100 0.0 CALM 0 0 0 0 1017.0 1017.0 11.0
23/06:56am 7.6 7.0 7.6 100 0.0 CALM 0 0 0 0 1017.9 - 11.0
23/06:30am 8.0 7.5 8.0 100 0.0 CALM 0 0 0 0 1016.7 1016.7 11.0
23/06:00am 8.4 8.0 8.4 100 0.0 CALM 0 0 0 0 1016.4 1016.4 11.0
23/05:30am 8.6 8.3 8.6 100 0.0 CALM 0 0 0 0 1016.3 1016.3 11.0
23/05:22am 8.6 8.3 8.6 100 0.0 CALM 0 0 0 0 1017.1 - 11.0
23/05:03am 8.7 8.4 8.7 100 0.0 CALM 0 6 0 3 1017.0 - 11.0
23/05:00am 8.7 8.4 8.7 100 0.0 CALM 0 6 0 3 1016.1 1016.1 11.0
23/04:45am 8.3 7.5 8.3 100 0.0 SW 2 7 1 4 1017.0 - 11.0
23/04:30am 8.0 7.5 8.0 100 0.0 CALM 0 0 0 0 1015.9 1015.9 11.0
23/04:00am 8.1 7.7 8.1 100 0.0 CALM 0 0 0 0 1015.7 1015.7 11.0
23/03:42am 8.3 7.9 8.3 100 0.0 CALM 0 0 0 0 1016.7 - 11.0
23/03:30am 8.4 8.0 8.4 100 0.0 CALM 0 0 0 0 1015.7 1015.7 11.0
23/03:00am 8.7 8.4 8.7 100 0.0 CALM 0 0 0 0 1015.6 1015.6 11.0
23/02:30am 9.1 8.9 9.1 100 0.0 CALM 0 0 0 0 1015.7 1015.7 11.0
23/02:00am 9.4 9.3 9.4 100 0.0 CALM 0 0 0 0 1016.0 1016.0 10.8
23/01:54am 9.4 9.3 9.4 100 0.0 CALM 0 0 0 0 1016.9 - 10.8
23/01:30am 9.6 9.5 9.6 100 0.0 CALM 0 0 0 0 1016.1 1016.1 10.8
23/01:00am 9.6 9.5 9.6 100 0.0 CALM 0 6 0 3 1016.2 1016.2 10.8
23/12:44am 9.6 9.5 9.6 100 0.0 CALM 0 4 0 2 1017.1 - 10.8
23/12:30am 9.5 9.4 9.5 100 0.0 CALM 0 0 0 0 1016.2 1016.2 10.8
23/12:00am 9.6 9.2 9.6 100 0.0 SSW 2 7 1 4 1016.2 1016.2 8.0
 
Date/Time
EST
Temp
°C
App
Temp
°C
Dew
Point
°C
Rel
Hum
%
Delta-T
°C
Wind Press
QNH
hPa
Press
MSL
hPa
Rain since
9am
mm
Dir  Spd
km/h
Gust
km/h
Spd
kts
Gust
kts
22/11:51pm 9.7 9.3 9.7 100 0.0 SSE 2 11 1 6 1017.1 - 8.0
22/11:30pm 9.7 9.7 9.7 100 0.0 CALM 0 0 0 0 1016.1 1016.1 7.6
22/11:00pm 9.7 9.6 9.6 99 0.0 CALM 0 0 0 0 1016.1 1016.1 7.6
22/10:30pm 9.7 9.6 9.4 98 0.1 CALM 0 0 0 0 1016.1 1016.1 7.4
22/10:00pm 9.9 9.8 9.3 96 0.3 CALM 0 0 0 0 1016.0 1016.0 7.4
22/09:30pm 10.0 9.8 9.2 95 0.4 CALM 0 0 0 0 1016.0 1016.0 7.4
22/09:00pm 10.1 9.1 9.0 93 0.5 S 4 6 2 3 1015.8 1015.8 7.4
22/08:30pm 10.5 9.1 8.8 89 0.8 S 6 9 3 5 1015.6 1015.6 7.2
22/08:00pm 10.6 8.5 8.4 86 1.1 S 9 20 5 11 1015.1 1015.1 7.2
22/07:30pm 10.8 9.4 9.4 91 0.7 S 7 13 4 7 1014.8 1014.8 7.2
22/07:00pm 10.7 9.9 9.8 94 0.5 S 4 9 2 5 1014.4 1014.4 7.2
22/06:30pm 10.3 9.1 9.5 95 0.4 SSW 6 15 3 8 1014.1 1014.1 7.2

Latest Capital City Observations: Canberra | Sydney | Melbourne | Brisbane | Adelaide | Perth | Hobart | Darwin

Other Formats:

Comma delimited format used in spreadsheet applications
http://www.bom.gov.au/fwo/IDV60901/IDV60901.95936.axf

JavaScript Object Notation format (JSON) in row-major order
http://www.bom.gov.au/fwo/IDV60901/IDV60901.95936.json